sensor_id;sensor_type;location;lat;lon;timestamp;P1;durP1;ratioP1;P2;durP2;ratioP2
55300;SDS011;58302;51.446;-2.000;2023-04-15T00:00:06;5.63;;;2.88;;
55300;SDS011;58302;51.446;-2.000;2023-04-15T00:02:32;6.65;;;3.22;;
55300;SDS011;58302;51.446;-2.000;2023-04-15T00:04:58;2.90;;;2.60;;
55300;SDS011;58302;51.446;-2.000;2023-04-15T00:07:24;4.97;;;2.72;;
55300;SDS011;58302;51.446;-2.000;2023-04-15T00:09:50;4.10;;;2.60;;
55300;SDS011;58302;51.446;-2.000;2023-04-15T00:12:19;8.82;;;4.72;;
55300;SDS011;58302;51.446;-2.000;2023-04-15T00:14:46;5.13;;;3.30;;
55300;SDS011;58302;51.446;-2.000;2023-04-15T00:17:12;4.35;;;2.72;;
55300;SDS011;58302;51.446;-2.000;2023-04-15T00:19:38;7.97;;;4.30;;
55300;SDS011;58302;51.446;-2.000;2023-04-15T00:22:05;6.18;;;3.25;;
55300;SDS011;58302;51.446;-2.000;2023-04-15T00:24:31;6.88;;;4.20;;
55300;SDS011;58302;51.446;-2.000;2023-04-15T00:26:57;4.50;;;3.40;;
55300;SDS011;58302;51.446;-2.000;2023-04-15T00:29:23;4.60;;;3.35;;
55300;SDS011;58302;51.446;-2.000;2023-04-15T00:31:49;5.60;;;3.53;;
55300;SDS011;58302;51.446;-2.000;2023-04-15T00:34:16;9.75;;;3.90;;
55300;SDS011;58302;51.446;-2.000;2023-04-15T00:36:42;6.57;;;4.25;;
55300;SDS011;58302;51.446;-2.000;2023-04-15T00:39:08;6.05;;;4.07;;
55300;SDS011;58302;51.446;-2.000;2023-04-15T00:41:34;8.52;;;4.38;;
55300;SDS011;58302;51.446;-2.000;2023-04-15T00:44:04;7.90;;;4.78;;
55300;SDS011;58302;51.446;-2.000;2023-04-15T00:46:31;5.00;;;3.75;;
55300;SDS011;58302;51.446;-2.000;2023-04-15T00:49:00;11.70;;;5.75;;
55300;SDS011;58302;51.446;-2.000;2023-04-15T00:51:28;8.65;;;4.53;;
55300;SDS011;58302;51.446;-2.000;2023-04-15T00:53:55;8.35;;;4.38;;
55300;SDS011;58302;51.446;-2.000;2023-04-15T00:56:22;6.82;;;4.80;;
55300;SDS011;58302;51.446;-2.000;2023-04-15T00:58:50;5.22;;;4.03;;
55300;SDS011;58302;51.446;-2.000;2023-04-15T01:01:20;5.65;;;4.28;;
55300;SDS011;58302;51.446;-2.000;2023-04-15T01:03:47;11.82;;;5.35;;
55300;SDS011;58302;51.446;-2.000;2023-04-15T01:06:14;6.45;;;4.60;;
55300;SDS011;58302;51.446;-2.000;2023-04-15T01:08:41;5.70;;;3.85;;
55300;SDS011;58302;51.446;-2.000;2023-04-15T01:11:07;8.45;;;4.22;;
55300;SDS011;58302;51.446;-2.000;2023-04-15T01:13:35;7.43;;;4.82;;
55300;SDS011;58302;51.446;-2.000;2023-04-15T01:16:01;9.73;;;4.80;;
55300;SDS011;58302;51.446;-2.000;2023-04-15T01:18:28;8.63;;;4.25;;
55300;SDS011;58302;51.446;-2.000;2023-04-15T01:20:54;7.38;;;5.07;;
55300;SDS011;58302;51.446;-2.000;2023-04-15T01:23:20;7.80;;;5.18;;
55300;SDS011;58302;51.446;-2.000;2023-04-15T01:25:47;9.32;;;5.57;;
55300;SDS011;58302;51.446;-2.000;2023-04-15T01:28:14;12.18;;;5.88;;
55300;SDS011;58302;51.446;-2.000;2023-04-15T01:30:41;11.50;;;5.85;;
55300;SDS011;58302;51.446;-2.000;2023-04-15T01:33:07;12.35;;;5.78;;
55300;SDS011;58302;51.446;-2.000;2023-04-15T01:35:33;10.35;;;6.38;;
55300;SDS011;58302;51.446;-2.000;2023-04-15T01:38:08;13.05;;;6.78;;
55300;SDS011;58302;51.446;-2.000;2023-04-15T01:40:36;16.00;;;7.85;;
55300;SDS011;58302;51.446;-2.000;2023-04-15T01:43:02;13.70;;;7.47;;
55300;SDS011;58302;51.446;-2.000;2023-04-15T01:45:28;14.88;;;7.80;;
55300;SDS011;58302;51.446;-2.000;2023-04-15T01:47:54;18.77;;;8.25;;
55300;SDS011;58302;51.446;-2.000;2023-04-15T01:50:20;18.48;;;9.00;;
55300;SDS011;58302;51.446;-2.000;2023-04-15T01:52:46;13.18;;;7.30;;
55300;SDS011;58302;51.446;-2.000;2023-04-15T01:55:13;14.48;;;8.52;;
55300;SDS011;58302;51.446;-2.000;2023-04-15T01:57:39;14.60;;;8.32;;
55300;SDS011;58302;51.446;-2.000;2023-04-15T02:00:05;16.52;;;8.98;;
55300;SDS011;58302;51.446;-2.000;2023-04-15T02:02:36;15.10;;;9.10;;
55300;SDS011;58302;51.446;-2.000;2023-04-15T02:05:02;15.80;;;8.93;;
55300;SDS011;58302;51.446;-2.000;2023-04-15T02:07:30;14.32;;;9.23;;
55300;SDS011;58302;51.446;-2.000;2023-04-15T02:09:57;17.88;;;9.02;;
55300;SDS011;58302;51.446;-2.000;2023-04-15T02:12:23;18.17;;;9.20;;
55300;SDS011;58302;51.446;-2.000;2023-04-15T02:14:49;18.33;;;10.50;;
55300;SDS011;58302;51.446;-2.000;2023-04-15T02:17:15;14.75;;;8.95;;
55300;SDS011;58302;51.446;-2.000;2023-04-15T02:19:41;20.55;;;11.00;;
55300;SDS011;58302;51.446;-2.000;2023-04-15T02:22:06;16.15;;;9.38;;
55300;SDS011;58302;51.446;-2.000;2023-04-15T02:24:33;17.63;;;9.52;;
55300;SDS011;58302;51.446;-2.000;2023-04-15T02:27:00;13.98;;;8.68;;
55300;SDS011;58302;51.446;-2.000;2023-04-15T02:29:26;15.50;;;8.50;;
55300;SDS011;58302;51.446;-2.000;2023-04-15T02:31:52;14.55;;;7.88;;
55300;SDS011;58302;51.446;-2.000;2023-04-15T02:34:18;13.55;;;7.72;;
55300;SDS011;58302;51.446;-2.000;2023-04-15T02:36:44;13.35;;;9.30;;
55300;SDS011;58302;51.446;-2.000;2023-04-15T02:39:13;16.48;;;8.60;;
55300;SDS011;58302;51.446;-2.000;2023-04-15T02:41:41;16.10;;;8.50;;
55300;SDS011;58302;51.446;-2.000;2023-04-15T02:44:08;13.48;;;8.82;;
55300;SDS011;58302;51.446;-2.000;2023-04-15T02:46:34;17.50;;;8.65;;
55300;SDS011;58302;51.446;-2.000;2023-04-15T02:49:01;11.73;;;6.93;;
55300;SDS011;58302;51.446;-2.000;2023-04-15T02:51:29;16.77;;;9.25;;
55300;SDS011;58302;51.446;-2.000;2023-04-15T02:53:55;18.95;;;9.70;;
55300;SDS011;58302;51.446;-2.000;2023-04-15T02:56:22;17.33;;;7.68;;
55300;SDS011;58302;51.446;-2.000;2023-04-15T02:58:48;12.45;;;8.30;;
55300;SDS011;58302;51.446;-2.000;2023-04-15T03:01:15;15.13;;;7.63;;
55300;SDS011;58302;51.446;-2.000;2023-04-15T03:03:41;15.20;;;9.13;;
55300;SDS011;58302;51.446;-2.000;2023-04-15T03:06:07;15.38;;;8.98;;
55300;SDS011;58302;51.446;-2.000;2023-04-15T03:08:33;12.70;;;7.88;;
55300;SDS011;58302;51.446;-2.000;2023-04-15T03:10:59;16.20;;;8.60;;
55300;SDS011;58302;51.446;-2.000;2023-04-15T03:13:27;15.35;;;8.75;;
55300;SDS011;58302;51.446;-2.000;2023-04-15T03:15:53;15.02;;;8.98;;
55300;SDS011;58302;51.446;-2.000;2023-04-15T03:18:19;18.42;;;10.30;;
55300;SDS011;58302;51.446;-2.000;2023-04-15T03:20:44;18.38;;;10.27;;
55300;SDS011;58302;51.446;-2.000;2023-04-15T03:23:11;19.00;;;10.43;;
55300;SDS011;58302;51.446;-2.000;2023-04-15T03:25:37;19.65;;;11.15;;
55300;SDS011;58302;51.446;-2.000;2023-04-15T03:28:03;18.02;;;9.43;;
55300;SDS011;58302;51.446;-2.000;2023-04-15T03:30:29;18.08;;;10.00;;
55300;SDS011;58302;51.446;-2.000;2023-04-15T03:32:55;18.45;;;9.95;;
55300;SDS011;58302;51.446;-2.000;2023-04-15T03:35:20;18.00;;;10.40;;
55300;SDS011;58302;51.446;-2.000;2023-04-15T03:37:46;17.90;;;9.80;;
55300;SDS011;58302;51.446;-2.000;2023-04-15T03:40:13;18.23;;;9.73;;
55300;SDS011;58302;51.446;-2.000;2023-04-15T03:42:40;15.25;;;8.98;;
55300;SDS011;58302;51.446;-2.000;2023-04-15T03:45:07;17.33;;;9.73;;
55300;SDS011;58302;51.446;-2.000;2023-04-15T03:47:33;13.45;;;9.13;;
55300;SDS011;58302;51.446;-2.000;2023-04-15T03:49:59;18.13;;;9.38;;
55300;SDS011;58302;51.446;-2.000;2023-04-15T03:52:25;13.57;;;8.45;;
55300;SDS011;58302;51.446;-2.000;2023-04-15T03:54:51;17.20;;;10.07;;
55300;SDS011;58302;51.446;-2.000;2023-04-15T03:57:17;13.63;;;9.20;;
55300;SDS011;58302;51.446;-2.000;2023-04-15T03:59:43;14.45;;;9.10;;
55300;SDS011;58302;51.446;-2.000;2023-04-15T04:02:09;16.08;;;8.70;;
55300;SDS011;58302;51.446;-2.000;2023-04-15T04:04:35;15.02;;;8.75;;
55300;SDS011;58302;51.446;-2.000;2023-04-15T04:07:01;16.20;;;10.30;;
55300;SDS011;58302;51.446;-2.000;2023-04-15T04:09:27;16.02;;;9.02;;
55300;SDS011;58302;51.446;-2.000;2023-04-15T04:11:53;15.25;;;8.52;;
55300;SDS011;58302;51.446;-2.000;2023-04-15T04:14:20;18.50;;;10.70;;
55300;SDS011;58302;51.446;-2.000;2023-04-15T04:16:51;17.85;;;9.75;;
55300;SDS011;58302;51.446;-2.000;2023-04-15T04:19:17;15.32;;;9.20;;
55300;SDS011;58302;51.446;-2.000;2023-04-15T04:21:44;17.83;;;10.32;;
55300;SDS011;58302;51.446;-2.000;2023-04-15T04:24:10;16.35;;;8.85;;
55300;SDS011;58302;51.446;-2.000;2023-04-15T04:26:36;13.18;;;7.93;;
55300;SDS011;58302;51.446;-2.000;2023-04-15T04:29:02;14.00;;;8.75;;
55300;SDS011;58302;51.446;-2.000;2023-04-15T04:31:28;14.65;;;8.73;;
55300;SDS011;58302;51.446;-2.000;2023-04-15T04:33:54;15.25;;;8.82;;
55300;SDS011;58302;51.446;-2.000;2023-04-15T04:36:20;15.70;;;8.55;;
55300;SDS011;58302;51.446;-2.000;2023-04-15T04:38:46;13.68;;;8.07;;
55300;SDS011;58302;51.446;-2.000;2023-04-15T04:41:12;12.90;;;8.07;;
55300;SDS011;58302;51.446;-2.000;2023-04-15T04:43:38;15.75;;;8.52;;
55300;SDS011;58302;51.446;-2.000;2023-04-15T04:46:04;14.63;;;8.38;;
55300;SDS011;58302;51.446;-2.000;2023-04-15T04:48:30;15.02;;;7.55;;
55300;SDS011;58302;51.446;-2.000;2023-04-15T04:50:56;13.55;;;8.02;;
55300;SDS011;58302;51.446;-2.000;2023-04-15T04:53:22;17.88;;;9.20;;
55300;SDS011;58302;51.446;-2.000;2023-04-15T04:55:48;14.13;;;8.23;;
55300;SDS011;58302;51.446;-2.000;2023-04-15T04:58:14;14.05;;;7.38;;
55300;SDS011;58302;51.446;-2.000;2023-04-15T05:00:40;13.48;;;8.23;;
55300;SDS011;58302;51.446;-2.000;2023-04-15T05:03:06;14.27;;;7.97;;
55300;SDS011;58302;51.446;-2.000;2023-04-15T05:05:32;12.75;;;8.80;;
55300;SDS011;58302;51.446;-2.000;2023-04-15T05:08:00;16.83;;;9.25;;
55300;SDS011;58302;51.446;-2.000;2023-04-15T05:10:26;17.60;;;9.82;;
55300;SDS011;58302;51.446;-2.000;2023-04-15T05:12:51;11.35;;;8.73;;
55300;SDS011;58302;51.446;-2.000;2023-04-15T05:15:17;18.30;;;8.55;;
55300;SDS011;58302;51.446;-2.000;2023-04-15T05:17:43;17.15;;;8.57;;
55300;SDS011;58302;51.446;-2.000;2023-04-15T05:20:10;17.52;;;8.98;;
55300;SDS011;58302;51.446;-2.000;2023-04-15T05:22:36;17.45;;;9.30;;
55300;SDS011;58302;51.446;-2.000;2023-04-15T05:25:02;17.60;;;9.48;;
55300;SDS011;58302;51.446;-2.000;2023-04-15T05:27:29;16.42;;;9.77;;
55300;SDS011;58302;51.446;-2.000;2023-04-15T05:29:55;17.50;;;8.75;;
55300;SDS011;58302;51.446;-2.000;2023-04-15T05:32:21;12.52;;;7.55;;
55300;SDS011;58302;51.446;-2.000;2023-04-15T05:34:47;15.55;;;7.53;;
55300;SDS011;58302;51.446;-2.000;2023-04-15T05:37:13;15.05;;;8.18;;
55300;SDS011;58302;51.446;-2.000;2023-04-15T05:39:39;12.60;;;7.75;;
55300;SDS011;58302;51.446;-2.000;2023-04-15T05:42:05;13.07;;;7.32;;
55300;SDS011;58302;51.446;-2.000;2023-04-15T05:44:31;15.02;;;7.03;;
55300;SDS011;58302;51.446;-2.000;2023-04-15T05:46:57;13.25;;;6.53;;
55300;SDS011;58302;51.446;-2.000;2023-04-15T05:49:23;11.65;;;6.93;;
55300;SDS011;58302;51.446;-2.000;2023-04-15T05:51:49;16.33;;;7.28;;
55300;SDS011;58302;51.446;-2.000;2023-04-15T05:54:15;12.23;;;6.47;;
55300;SDS011;58302;51.446;-2.000;2023-04-15T05:56:41;13.60;;;7.35;;
55300;SDS011;58302;51.446;-2.000;2023-04-15T05:59:07;11.82;;;7.00;;
55300;SDS011;58302;51.446;-2.000;2023-04-15T06:01:33;13.32;;;7.32;;
55300;SDS011;58302;51.446;-2.000;2023-04-15T06:04:00;12.32;;;6.45;;
55300;SDS011;58302;51.446;-2.000;2023-04-15T06:06:26;19.85;;;6.68;;
55300;SDS011;58302;51.446;-2.000;2023-04-15T06:08:52;8.75;;;5.78;;
55300;SDS011;58302;51.446;-2.000;2023-04-15T06:11:19;9.88;;;5.43;;
55300;SDS011;58302;51.446;-2.000;2023-04-15T06:13:46;10.50;;;5.28;;
55300;SDS011;58302;51.446;-2.000;2023-04-15T06:16:12;9.52;;;5.30;;
55300;SDS011;58302;51.446;-2.000;2023-04-15T06:18:38;6.32;;;4.97;;
55300;SDS011;58302;51.446;-2.000;2023-04-15T06:21:04;7.68;;;5.10;;
55300;SDS011;58302;51.446;-2.000;2023-04-15T06:23:30;8.90;;;5.72;;
55300;SDS011;58302;51.446;-2.000;2023-04-15T06:25:59;6.95;;;4.82;;
55300;SDS011;58302;51.446;-2.000;2023-04-15T06:28:25;8.52;;;5.18;;
55300;SDS011;58302;51.446;-2.000;2023-04-15T06:30:51;9.80;;;6.25;;
55300;SDS011;58302;51.446;-2.000;2023-04-15T06:33:18;7.85;;;4.95;;
55300;SDS011;58302;51.446;-2.000;2023-04-15T06:35:44;9.82;;;5.63;;
55300;SDS011;58302;51.446;-2.000;2023-04-15T06:38:10;11.50;;;5.85;;
55300;SDS011;58302;51.446;-2.000;2023-04-15T06:40:36;9.32;;;6.53;;
55300;SDS011;58302;51.446;-2.000;2023-04-15T06:43:02;10.38;;;5.38;;
55300;SDS011;58302;51.446;-2.000;2023-04-15T06:45:29;9.23;;;5.70;;
55300;SDS011;58302;51.446;-2.000;2023-04-15T06:47:55;7.10;;;4.72;;
55300;SDS011;58302;51.446;-2.000;2023-04-15T06:50:21;8.23;;;5.45;;
55300;SDS011;58302;51.446;-2.000;2023-04-15T06:52:47;8.70;;;4.85;;
55300;SDS011;58302;51.446;-2.000;2023-04-15T06:55:13;8.48;;;4.20;;
55300;SDS011;58302;51.446;-2.000;2023-04-15T06:57:39;5.50;;;3.75;;
55300;SDS011;58302;51.446;-2.000;2023-04-15T07:00:05;5.15;;;3.25;;
55300;SDS011;58302;51.446;-2.000;2023-04-15T07:02:32;4.88;;;2.92;;
55300;SDS011;58302;51.446;-2.000;2023-04-15T07:04:58;6.20;;;3.17;;
55300;SDS011;58302;51.446;-2.000;2023-04-15T07:07:24;5.22;;;3.35;;
55300;SDS011;58302;51.446;-2.000;2023-04-15T07:09:50;5.70;;;3.38;;
55300;SDS011;58302;51.446;-2.000;2023-04-15T07:12:18;10.23;;;3.33;;
55300;SDS011;58302;51.446;-2.000;2023-04-15T07:14:44;7.65;;;3.40;;
55300;SDS011;58302;51.446;-2.000;2023-04-15T07:17:10;4.68;;;2.90;;
55300;SDS011;58302;51.446;-2.000;2023-04-15T07:19:36;5.05;;;3.58;;
55300;SDS011;58302;51.446;-2.000;2023-04-15T07:22:02;9.48;;;2.85;;
55300;SDS011;58302;51.446;-2.000;2023-04-15T07:24:28;6.88;;;3.33;;
55300;SDS011;58302;51.446;-2.000;2023-04-15T07:26:54;3.80;;;3.35;;
55300;SDS011;58302;51.446;-2.000;2023-04-15T07:29:24;4.25;;;3.10;;
55300;SDS011;58302;51.446;-2.000;2023-04-15T07:31:50;4.50;;;2.92;;
55300;SDS011;58302;51.446;-2.000;2023-04-15T07:34:17;5.07;;;3.03;;
55300;SDS011;58302;51.446;-2.000;2023-04-15T07:36:44;6.60;;;2.90;;
55300;SDS011;58302;51.446;-2.000;2023-04-15T07:39:10;4.18;;;3.25;;
55300;SDS011;58302;51.446;-2.000;2023-04-15T07:41:36;5.47;;;3.58;;
55300;SDS011;58302;51.446;-2.000;2023-04-15T07:44:03;4.85;;;2.80;;
55300;SDS011;58302;51.446;-2.000;2023-04-15T07:46:29;4.82;;;3.97;;
55300;SDS011;58302;51.446;-2.000;2023-04-15T07:48:56;4.45;;;3.35;;
55300;SDS011;58302;51.446;-2.000;2023-04-15T07:51:21;7.28;;;3.92;;
55300;SDS011;58302;51.446;-2.000;2023-04-15T07:53:48;5.03;;;3.55;;
55300;SDS011;58302;51.446;-2.000;2023-04-15T07:56:15;6.97;;;3.85;;
55300;SDS011;58302;51.446;-2.000;2023-04-15T07:58:41;8.38;;;5.40;;
55300;SDS011;58302;51.446;-2.000;2023-04-15T08:01:07;7.00;;;4.20;;
55300;SDS011;58302;51.446;-2.000;2023-04-15T08:03:33;5.68;;;3.65;;
55300;SDS011;58302;51.446;-2.000;2023-04-15T08:05:59;7.65;;;3.90;;
55300;SDS011;58302;51.446;-2.000;2023-04-15T08:08:25;4.45;;;3.83;;
55300;SDS011;58302;51.446;-2.000;2023-04-15T08:10:51;4.72;;;3.75;;
55300;SDS011;58302;51.446;-2.000;2023-04-15T08:13:17;4.95;;;4.45;;
55300;SDS011;58302;51.446;-2.000;2023-04-15T08:15:44;4.28;;;2.97;;
55300;SDS011;58302;51.446;-2.000;2023-04-15T08:18:10;4.45;;;2.75;;
55300;SDS011;58302;51.446;-2.000;2023-04-15T08:20:36;5.65;;;4.10;;
55300;SDS011;58302;51.446;-2.000;2023-04-15T08:23:02;10.43;;;4.90;;
55300;SDS011;58302;51.446;-2.000;2023-04-15T08:25:29;4.63;;;3.38;;
55300;SDS011;58302;51.446;-2.000;2023-04-15T08:27:55;5.85;;;3.03;;
55300;SDS011;58302;51.446;-2.000;2023-04-15T08:30:24;5.75;;;3.80;;
55300;SDS011;58302;51.446;-2.000;2023-04-15T08:32:49;6.50;;;4.15;;
55300;SDS011;58302;51.446;-2.000;2023-04-15T08:35:15;5.88;;;3.65;;
55300;SDS011;58302;51.446;-2.000;2023-04-15T08:37:42;7.55;;;3.60;;
55300;SDS011;58302;51.446;-2.000;2023-04-15T08:40:08;6.63;;;3.78;;
55300;SDS011;58302;51.446;-2.000;2023-04-15T08:42:36;6.53;;;3.70;;
55300;SDS011;58302;51.446;-2.000;2023-04-15T08:45:06;5.53;;;4.05;;
55300;SDS011;58302;51.446;-2.000;2023-04-15T08:47:34;6.03;;;3.53;;
55300;SDS011;58302;51.446;-2.000;2023-04-15T08:50:03;5.25;;;3.97;;
55300;SDS011;58302;51.446;-2.000;2023-04-15T08:52:33;4.53;;;3.65;;
55300;SDS011;58302;51.446;-2.000;2023-04-15T08:55:00;7.60;;;4.30;;
55300;SDS011;58302;51.446;-2.000;2023-04-15T08:57:27;5.78;;;4.07;;
55300;SDS011;58302;51.446;-2.000;2023-04-15T08:59:57;9.85;;;4.38;;
55300;SDS011;58302;51.446;-2.000;2023-04-15T09:02:23;6.47;;;3.88;;
55300;SDS011;58302;51.446;-2.000;2023-04-15T09:04:50;5.20;;;3.65;;
55300;SDS011;58302;51.446;-2.000;2023-04-15T09:07:16;6.53;;;4.28;;
55300;SDS011;58302;51.446;-2.000;2023-04-15T09:09:42;4.40;;;3.22;;
55300;SDS011;58302;51.446;-2.000;2023-04-15T09:12:08;4.50;;;3.35;;
55300;SDS011;58302;51.446;-2.000;2023-04-15T09:14:36;4.45;;;3.83;;
55300;SDS011;58302;51.446;-2.000;2023-04-15T09:17:04;4.75;;;3.67;;
55300;SDS011;58302;51.446;-2.000;2023-04-15T09:19:30;6.47;;;3.53;;
55300;SDS011;58302;51.446;-2.000;2023-04-15T09:21:58;5.30;;;3.65;;
55300;SDS011;58302;51.446;-2.000;2023-04-15T09:24:24;4.78;;;3.17;;
55300;SDS011;58302;51.446;-2.000;2023-04-15T09:26:58;5.57;;;3.08;;
55300;SDS011;58302;51.446;-2.000;2023-04-15T09:29:25;4.55;;;3.38;;
55300;SDS011;58302;51.446;-2.000;2023-04-15T09:31:53;5.35;;;3.38;;
55300;SDS011;58302;51.446;-2.000;2023-04-15T09:34:20;6.45;;;4.10;;
55300;SDS011;58302;51.446;-2.000;2023-04-15T09:39:12;4.10;;;3.00;;
55300;SDS011;58302;51.446;-2.000;2023-04-15T09:41:38;5.63;;;2.78;;
55300;SDS011;58302;51.446;-2.000;2023-04-15T09:44:05;3.97;;;2.90;;
55300;SDS011;58302;51.446;-2.000;2023-04-15T09:46:44;4.22;;;3.42;;
55300;SDS011;58302;51.446;-2.000;2023-04-15T09:49:10;3.97;;;3.22;;
55300;SDS011;58302;51.446;-2.000;2023-04-15T09:51:37;5.57;;;3.53;;
55300;SDS011;58302;51.446;-2.000;2023-04-15T09:54:04;4.95;;;2.95;;
55300;SDS011;58302;51.446;-2.000;2023-04-15T09:56:34;5.22;;;3.30;;
55300;SDS011;58302;51.446;-2.000;2023-04-15T09:59:06;3.65;;;2.90;;
55300;SDS011;58302;51.446;-2.000;2023-04-15T10:01:33;3.70;;;2.80;;
55300;SDS011;58302;51.446;-2.000;2023-04-15T10:04:03;4.30;;;3.30;;
55300;SDS011;58302;51.446;-2.000;2023-04-15T10:06:30;6.00;;;3.65;;
55300;SDS011;58302;51.446;-2.000;2023-04-15T10:08:56;3.30;;;2.88;;
55300;SDS011;58302;51.446;-2.000;2023-04-15T10:11:23;3.88;;;3.10;;
55300;SDS011;58302;51.446;-2.000;2023-04-15T10:13:53;7.07;;;3.65;;
55300;SDS011;58302;51.446;-2.000;2023-04-15T10:16:20;4.28;;;2.92;;
55300;SDS011;58302;51.446;-2.000;2023-04-15T10:18:50;4.40;;;2.88;;
55300;SDS011;58302;51.446;-2.000;2023-04-15T10:21:19;4.45;;;2.97;;
55300;SDS011;58302;51.446;-2.000;2023-04-15T10:23:48;4.25;;;3.15;;
55300;SDS011;58302;51.446;-2.000;2023-04-15T10:26:14;3.65;;;2.78;;
55300;SDS011;58302;51.446;-2.000;2023-04-15T10:28:42;5.00;;;2.67;;
55300;SDS011;58302;51.446;-2.000;2023-04-15T10:31:12;5.75;;;3.17;;
55300;SDS011;58302;51.446;-2.000;2023-04-15T10:33:39;2.83;;;2.50;;
55300;SDS011;58302;51.446;-2.000;2023-04-15T10:36:07;14.45;;;2.65;;
55300;SDS011;58302;51.446;-2.000;2023-04-15T10:38:34;3.60;;;3.25;;
55300;SDS011;58302;51.446;-2.000;2023-04-15T10:41:11;4.28;;;3.03;;
55300;SDS011;58302;51.446;-2.000;2023-04-15T10:43:37;3.35;;;2.47;;
55300;SDS011;58302;51.446;-2.000;2023-04-15T10:46:04;4.03;;;2.63;;
55300;SDS011;58302;51.446;-2.000;2023-04-15T10:48:31;4.15;;;2.90;;
55300;SDS011;58302;51.446;-2.000;2023-04-15T10:50:59;3.22;;;2.58;;
55300;SDS011;58302;51.446;-2.000;2023-04-15T10:53:29;4.93;;;2.50;;
55300;SDS011;58302;51.446;-2.000;2023-04-15T10:55:56;3.33;;;2.67;;
55300;SDS011;58302;51.446;-2.000;2023-04-15T10:58:23;3.35;;;2.65;;
55300;SDS011;58302;51.446;-2.000;2023-04-15T11:00:53;4.00;;;2.60;;
55300;SDS011;58302;51.446;-2.000;2023-04-15T11:03:37;3.40;;;2.60;;
55300;SDS011;58302;51.446;-2.000;2023-04-15T11:06:05;4.10;;;2.90;;
55300;SDS011;58302;51.446;-2.000;2023-04-15T11:11:21;4.10;;;2.80;;
55300;SDS011;58302;51.446;-2.000;2023-04-15T11:13:48;3.55;;;2.35;;
55300;SDS011;58302;51.446;-2.000;2023-04-15T11:16:16;3.85;;;2.17;;
55300;SDS011;58302;51.446;-2.000;2023-04-15T11:18:42;2.33;;;2.13;;
55300;SDS011;58302;51.446;-2.000;2023-04-15T11:21:18;4.03;;;2.53;;
55300;SDS011;58302;51.446;-2.000;2023-04-15T11:23:48;3.15;;;2.40;;
55300;SDS011;58302;51.446;-2.000;2023-04-15T11:26:15;2.42;;;1.90;;
55300;SDS011;58302;51.446;-2.000;2023-04-15T11:28:42;2.50;;;1.92;;
55300;SDS011;58302;51.446;-2.000;2023-04-15T11:31:15;2.50;;;2.08;;
55300;SDS011;58302;51.446;-2.000;2023-04-15T11:33:55;2.60;;;2.10;;
55300;SDS011;58302;51.446;-2.000;2023-04-15T11:36:25;4.22;;;2.58;;
55300;SDS011;58302;51.446;-2.000;2023-04-15T11:38:52;2.45;;;1.83;;
55300;SDS011;58302;51.446;-2.000;2023-04-15T11:41:24;3.40;;;2.28;;
55300;SDS011;58302;51.446;-2.000;2023-04-15T11:43:50;3.33;;;2.50;;
55300;SDS011;58302;51.446;-2.000;2023-04-15T11:46:17;3.35;;;2.45;;
55300;SDS011;58302;51.446;-2.000;2023-04-15T11:48:44;3.63;;;2.58;;
55300;SDS011;58302;51.446;-2.000;2023-04-15T11:51:11;3.05;;;2.50;;
55300;SDS011;58302;51.446;-2.000;2023-04-15T11:56:24;3.28;;;2.53;;
55300;SDS011;58302;51.446;-2.000;2023-04-15T11:58:54;2.58;;;2.10;;
55300;SDS011;58302;51.446;-2.000;2023-04-15T12:01:32;2.95;;;2.20;;
55300;SDS011;58302;51.446;-2.000;2023-04-15T12:03:59;3.33;;;2.20;;
55300;SDS011;58302;51.446;-2.000;2023-04-15T12:06:30;2.20;;;1.70;;
55300;SDS011;58302;51.446;-2.000;2023-04-15T12:11:35;2.70;;;2.10;;
55300;SDS011;58302;51.446;-2.000;2023-04-15T12:14:30;2.83;;;2.42;;
55300;SDS011;58302;51.446;-2.000;2023-04-15T12:16:58;3.22;;;2.30;;
55300;SDS011;58302;51.446;-2.000;2023-04-15T12:19:27;2.63;;;2.03;;
55300;SDS011;58302;51.446;-2.000;2023-04-15T12:21:58;8.13;;;2.50;;
55300;SDS011;58302;51.446;-2.000;2023-04-15T12:24:26;2.55;;;1.98;;
55300;SDS011;58302;51.446;-2.000;2023-04-15T12:26:55;2.28;;;1.50;;
55300;SDS011;58302;51.446;-2.000;2023-04-15T12:29:26;3.10;;;1.90;;
55300;SDS011;58302;51.446;-2.000;2023-04-15T12:31:56;3.60;;;2.03;;
55300;SDS011;58302;51.446;-2.000;2023-04-15T12:34:31;4.05;;;2.47;;
55300;SDS011;58302;51.446;-2.000;2023-04-15T12:36:58;5.03;;;2.88;;
55300;SDS011;58302;51.446;-2.000;2023-04-15T12:39:26;2.35;;;1.60;;
55300;SDS011;58302;51.446;-2.000;2023-04-15T12:41:54;2.15;;;1.80;;
55300;SDS011;58302;51.446;-2.000;2023-04-15T12:44:21;2.67;;;1.67;;
55300;SDS011;58302;51.446;-2.000;2023-04-15T12:46:48;3.83;;;1.83;;
55300;SDS011;58302;51.446;-2.000;2023-04-15T12:49:15;1.90;;;1.48;;
55300;SDS011;58302;51.446;-2.000;2023-04-15T12:51:44;2.15;;;1.95;;
55300;SDS011;58302;51.446;-2.000;2023-04-15T12:54:10;2.70;;;1.52;;
55300;SDS011;58302;51.446;-2.000;2023-04-15T12:56:36;1.85;;;1.65;;
55300;SDS011;58302;51.446;-2.000;2023-04-15T12:59:02;2.85;;;1.50;;
55300;SDS011;58302;51.446;-2.000;2023-04-15T13:01:27;1.88;;;1.58;;
55300;SDS011;58302;51.446;-2.000;2023-04-15T13:03:53;2.25;;;1.52;;
55300;SDS011;58302;51.446;-2.000;2023-04-15T13:06:20;1.92;;;1.52;;
55300;SDS011;58302;51.446;-2.000;2023-04-15T13:08:46;1.95;;;1.63;;
55300;SDS011;58302;51.446;-2.000;2023-04-15T13:11:12;2.25;;;1.75;;
55300;SDS011;58302;51.446;-2.000;2023-04-15T13:13:38;1.65;;;1.55;;
55300;SDS011;58302;51.446;-2.000;2023-04-15T13:16:04;2.50;;;1.80;;
55300;SDS011;58302;51.446;-2.000;2023-04-15T13:18:31;1.63;;;1.45;;
55300;SDS011;58302;51.446;-2.000;2023-04-15T13:20:56;1.80;;;1.60;;
55300;SDS011;58302;51.446;-2.000;2023-04-15T13:23:22;1.75;;;1.40;;
55300;SDS011;58302;51.446;-2.000;2023-04-15T13:25:48;2.05;;;1.80;;
55300;SDS011;58302;51.446;-2.000;2023-04-15T13:28:14;2.13;;;1.67;;
55300;SDS011;58302;51.446;-2.000;2023-04-15T13:30:40;2.10;;;1.70;;
55300;SDS011;58302;51.446;-2.000;2023-04-15T13:33:07;1.60;;;1.48;;
55300;SDS011;58302;51.446;-2.000;2023-04-15T13:35:33;1.92;;;1.77;;
55300;SDS011;58302;51.446;-2.000;2023-04-15T13:38:00;1.70;;;1.45;;
55300;SDS011;58302;51.446;-2.000;2023-04-15T13:40:26;2.20;;;1.90;;
55300;SDS011;58302;51.446;-2.000;2023-04-15T13:42:52;1.55;;;1.33;;
55300;SDS011;58302;51.446;-2.000;2023-04-15T13:45:18;1.60;;;1.40;;
55300;SDS011;58302;51.446;-2.000;2023-04-15T13:47:44;1.55;;;1.45;;
55300;SDS011;58302;51.446;-2.000;2023-04-15T13:50:10;2.10;;;1.80;;
55300;SDS011;58302;51.446;-2.000;2023-04-15T13:52:36;2.08;;;1.55;;
55300;SDS011;58302;51.446;-2.000;2023-04-15T13:55:02;2.22;;;2.00;;
55300;SDS011;58302;51.446;-2.000;2023-04-15T13:57:29;2.83;;;1.80;;
55300;SDS011;58302;51.446;-2.000;2023-04-15T13:59:56;2.35;;;1.95;;
55300;SDS011;58302;51.446;-2.000;2023-04-15T14:02:22;1.92;;;1.73;;
55300;SDS011;58302;51.446;-2.000;2023-04-15T14:04:48;2.40;;;1.30;;
55300;SDS011;58302;51.446;-2.000;2023-04-15T14:07:14;2.58;;;1.70;;
55300;SDS011;58302;51.446;-2.000;2023-04-15T14:09:41;2.85;;;2.20;;
55300;SDS011;58302;51.446;-2.000;2023-04-15T14:12:08;2.58;;;1.88;;
55300;SDS011;58302;51.446;-2.000;2023-04-15T14:14:35;2.20;;;1.77;;
55300;SDS011;58302;51.446;-2.000;2023-04-15T14:17:02;1.60;;;1.50;;
55300;SDS011;58302;51.446;-2.000;2023-04-15T14:19:29;2.20;;;1.73;;
55300;SDS011;58302;51.446;-2.000;2023-04-15T14:21:56;2.65;;;1.30;;
55300;SDS011;58302;51.446;-2.000;2023-04-15T14:24:22;3.13;;;1.80;;
55300;SDS011;58302;51.446;-2.000;2023-04-15T14:26:47;2.40;;;1.75;;
55300;SDS011;58302;51.446;-2.000;2023-04-15T14:29:13;1.73;;;1.58;;
55300;SDS011;58302;51.446;-2.000;2023-04-15T14:31:39;1.50;;;1.40;;
55300;SDS011;58302;51.446;-2.000;2023-04-15T14:34:06;2.88;;;1.60;;
55300;SDS011;58302;51.446;-2.000;2023-04-15T14:36:31;1.90;;;1.65;;